Time;durP1;ratioP1;P1;durP2;ratioP2;P2;SDS_P1;SDS_P2;PMS_P1;PMS_P2;Temp;Humidity;BMP_temperature;BMP_pressure;BME280_temperature;BME280_humidity;BME280_pressure;Samples;Min_cycle;Max_cycle;Signal;HPM_P1;HPM_P2
2023/08/20 00:01:31;;;;;;;10.65;2.60;;;;;;;18.05;100.00;155958.66;5031079;28;20054;-73
2023/08/20 00:03:57;;;;;;;12.57;2.67;;;;;;;18.10;100.00;155971.66;5024526;28;20191;-73
2023/08/20 00:06:23;;;;;;;8.73;2.30;;;;;;;18.11;100.00;155974.25;5024196;28;20544;-73
2023/08/20 00:08:49;;;;;;;16.90;2.45;;;;;;;18.12;100.00;155976.84;5020676;28;20287;-73
2023/08/20 00:11:15;;;;;;;11.43;2.13;;;;;;;18.08;100.00;155967.75;5022740;28;20025;-73
2023/08/20 00:13:41;;;;;;;16.23;2.63;;;;;;;18.12;100.00;155978.19;5022938;28;20029;-73
2023/08/20 00:16:07;;;;;;;7.75;2.05;;;;;;;18.23;100.00;156005.50;5026378;28;20508;-73
2023/08/20 00:18:33;;;;;;;15.25;3.45;;;;;;;18.42;100.00;156055.06;5026598;28;20030;-73
2023/08/20 00:20:59;;;;;;;12.57;2.50;;;;;;;18.49;100.00;156073.28;5023880;28;20065;-73
2023/08/20 00:23:25;;;;;;;15.38;2.75;;;;;;;18.59;100.00;156099.34;5015062;28;20044;-73
2023/08/20 00:25:51;;;;;;;11.07;2.30;;;;;;;18.64;100.00;156113.72;5025365;28;20400;-71
2023/08/20 00:28:18;;;;;;;14.00;2.20;;;;;;;18.69;100.00;156125.41;5022827;28;20029;-71
2023/08/20 00:30:44;;;;;;;14.07;3.50;;;;;;;18.77;100.00;156146.25;5026827;28;20761;-71
2023/08/20 00:33:10;;;;;;;12.10;2.78;;;;;;;18.85;100.00;156167.09;5014512;28;20033;-71
2023/08/20 00:35:35;;;;;;;8.60;1.97;;;;;;;18.86;100.00;156171.03;5022399;28;20441;-72
2023/08/20 00:38:01;;;;;;;14.87;2.60;;;;;;;18.87;100.00;156173.63;5022383;28;20084;-70
2023/08/20 00:40:26;;;;;;;15.90;2.77;;;;;;;18.94;100.00;156191.84;5027899;28;20029;-70
2023/08/20 00:42:51;;;;;;;13.60;3.23;;;;;;;18.92;100.00;156185.34;5022902;28;20512;-70
2023/08/20 00:45:17;;;;;;;15.10;2.57;;;;;;;18.98;100.00;156200.97;5026103;28;20030;-70
2023/08/20 00:47:43;;;;;;;14.53;3.07;;;;;;;19.07;100.00;156224.44;5022308;28;20026;-72
2023/08/20 00:50:09;;;;;;;13.57;3.13;;;;;;;19.05;100.00;156220.53;5020013;28;20407;-70
2023/08/20 00:52:35;;;;;;;15.32;3.03;;;;;;;19.04;100.00;156216.66;5021852;28;20081;-70
2023/08/20 00:55:08;;;;;;;18.80;3.00;;;;;;;19.03;100.00;156214.00;5015198;28;20044;-70
2023/08/20 00:57:34;;;;;;;13.00;3.08;;;;;;;18.96;100.00;156195.78;5024454;28;20036;-70
2023/08/20 01:00:00;;;;;;;18.85;2.90;;;;;;;18.89;100.00;156177.53;5019853;28;20029;-70
2023/08/20 01:02:26;;;;;;;14.90;2.30;;;;;;;18.86;100.00;156171.03;5023819;28;20041;-71
2023/08/20 01:04:51;;;;;;;10.57;2.00;;;;;;;18.77;100.00;156147.56;5025966;28;20029;-70
2023/08/20 01:07:29;;;;;;;10.43;1.97;;;;;;;18.68;100.00;156124.09;5022852;28;20032;-71
2023/08/20 01:10:13;;;;;;;9.80;2.15;;;;;;;18.67;100.00;156121.50;5021176;28;20037;-71
2023/08/20 01:12:39;;;;;;;8.38;2.25;;;;;;;18.66;100.00;156117.59;5025067;28;20104;-71
2023/08/20 01:15:05;;;;;;;10.02;2.83;;;;;;;18.56;100.00;156091.56;5025328;28;20467;-72
2023/08/20 01:17:30;;;;;;;13.18;3.00;;;;;;;18.52;100.00;156081.13;5017780;28;20038;-71
2023/08/20 01:19:57;;;;;;;12.90;2.47;;;;;;;18.44;100.00;156061.59;5024993;28;20033;-70
2023/08/20 01:22:47;;;;;;;8.45;2.60;;;;;;;18.45;100.00;156062.84;5026844;28;20033;-71
2023/08/20 01:25:40;;;;;;;9.73;2.15;;;;;;;18.45;100.00;156062.84;5023858;28;20064;-72
2023/08/20 01:28:21;;;;;;;8.00;2.00;;;;;;;18.53;100.00;156085.06;5028467;28;20017;-70
2023/08/20 01:30:47;;;;;;;8.95;2.47;;;;;;;18.57;100.00;156094.16;5027515;28;20039;-71
2023/08/20 01:33:14;;;;;;;14.50;3.63;;;;;;;18.58;100.00;156096.75;5029262;28;20095;-70
2023/08/20 01:35:40;;;;;;;12.60;2.80;;;;;;;18.61;100.00;156104.53;5019482;28;20129;-72
2023/08/20 01:38:05;;;;;;;15.27;2.40;;;;;;;18.58;100.00;156098.03;5024721;28;20104;-71
2023/08/20 01:40:31;;;;;;;10.83;2.40;;;;;;;18.55;100.00;156088.91;5025419;28;20844;-71
2023/08/20 01:42:57;;;;;;;7.72;2.00;;;;;;;18.56;100.00;156092.84;5029418;28;20022;-71
2023/08/20 01:45:23;;;;;;;10.75;2.10;;;;;;;18.52;100.00;156081.13;5024380;28;20046;-73
2023/08/20 01:47:48;;;;;;;9.47;1.97;;;;;;;18.47;100.00;156068.09;5027347;28;20114;-70
2023/08/20 01:50:14;;;;;;;14.23;2.42;;;;;;;18.40;100.00;156051.16;5020617;28;20354;-71
2023/08/20 01:52:40;;;;;;;12.87;2.40;;;;;;;18.37;100.00;156042.03;5019889;28;20041;-72
2023/08/20 01:55:06;;;;;;;11.33;2.60;;;;;;;18.36;100.00;156040.72;5029512;28;20029;-70
2023/08/20 01:57:31;;;;;;;12.70;3.13;;;;;;;18.30;100.00;156023.78;5026502;28;20409;-70
2023/08/20 01:59:57;;;;;;;15.53;2.80;;;;;;;18.28;100.00;156018.53;5021915;28;20041;-73
2023/08/20 02:02:23;;;;;;;8.57;2.05;;;;;;;18.23;100.00;156006.81;5026801;28;20036;-70
2023/08/20 02:04:48;;;;;;;10.73;2.20;;;;;;;18.18;100.00;155993.81;5026252;28;20033;-70
2023/08/20 02:07:14;;;;;;;7.67;1.80;;;;;;;18.11;100.00;155975.59;5023302;28;20108;-75
2023/08/20 02:09:39;;;;;;;11.47;2.87;;;;;;;18.02;100.00;155950.81;5027148;28;20359;-73
2023/08/20 02:12:05;;;;;;;10.63;2.53;;;;;;;17.98;100.00;155940.44;5026337;28;20026;-74
2023/08/20 02:14:34;;;;;;;8.07;1.67;;;;;;;17.88;100.00;155915.66;5021021;28;20490;-74
2023/08/20 02:17:00;;;;;;;7.03;2.30;;;;;;;17.75;100.00;147809.81;5023579;28;20033;-75
2023/08/20 02:19:25;;;;;;;12.53;3.10;;;;;;;17.68;100.00;140081.25;5029366;28;20025;-74
2023/08/20 02:21:50;;;;;;;10.87;2.63;;;;;;;17.64;100.00;130414.78;5019005;28;20095;-75
2023/08/20 02:24:16;;;;;;;6.87;1.83;;;;;;;17.55;100.00;127182.09;5025611;28;20025;-75
2023/08/20 02:26:41;;;;;;;9.20;1.87;;;;;;;17.44;100.00;116824.31;5023981;28;20029;-75
2023/08/20 02:29:06;;;;;;;6.10;2.20;;;;;;;17.37;100.00;111832.44;5025505;28;20057;-75
2023/08/20 02:31:32;;;;;;;17.67;2.30;;;;;;;17.30;100.00;104362.00;5023747;28;20034;-74
2023/08/20 02:33:57;;;;;;;13.33;2.10;;;;;;;17.25;100.00;98682.69;5025911;28;20037;-74
2023/08/20 02:36:23;;;;;;;11.17;1.87;;;;;;;17.19;100.00;91594.50;5026371;28;20393;-74
2023/08/20 02:38:48;;;;;;;8.37;2.47;;;;;;;17.12;100.00;89110.63;5024273;28;20060;-74
2023/08/20 02:41:13;;;;;;;14.53;3.47;;;;;;;17.10;100.00;84517.41;5022831;28;20022;-75
2023/08/20 02:43:39;;;;;;;12.30;2.20;;;;;;;17.08;100.00;85572.66;5026852;28;20018;-74
2023/08/20 02:46:04;;;;;;;11.50;2.00;;;;;;;17.09;100.00;79577.94;5027075;28;20481;-74
2023/08/20 02:48:30;;;;;;;11.23;1.80;;;;;;;17.12;100.00;76411.59;5024110;28;20037;-74
2023/08/20 02:50:56;;;;;;;9.60;1.93;;;;;;;17.17;100.00;73600.59;5019917;28;20025;-75
2023/08/20 02:53:22;;;;;;;11.97;2.27;;;;;;;17.19;100.00;71139.94;5028544;28;20277;-75
2023/08/20 02:55:47;;;;;;;6.88;2.20;;;;;;;17.22;100.00;71495.31;5020676;28;20033;-74
2023/08/20 02:58:12;;;;;;;13.23;2.30;;;;;;;17.24;100.00;73609.25;5023727;28;20055;-74
2023/08/20 03:00:38;;;;;;;17.10;2.50;;;;;;;17.20;100.00;77126.41;5021053;28;20025;-73
2023/08/20 03:03:07;;;;;;;16.10;2.70;;;;;;;17.26;100.00;74315.81;5026604;28;20117;-74
2023/08/20 03:05:33;;;;;;;9.13;2.22;;;;;;;17.31;100.00;71858.63;5025801;28;20025;-74
2023/08/20 03:07:58;;;;;;;12.37;2.23;;;;;;;17.40;100.00;73629.03;5025742;28;20032;-75
2023/08/20 03:10:24;;;;;;;13.87;2.73;;;;;;;17.45;100.00;72931.00;5021099;28;20294;-74
2023/08/20 03:12:49;;;;;;;8.57;2.60;;;;;;;17.57;100.00;73297.84;5045288;28;20034;-75
2023/08/20 03:15:15;;;;;;;18.50;2.93;;;;;;;17.62;100.00;74008.44;5022888;28;20393;-75
2023/08/20 03:17:40;;;;;;;15.87;2.77;;;;;;;17.66;100.00;75070.41;5028108;28;20064;-73
2023/08/20 03:20:06;;;;;;;7.93;2.37;;;;;;;17.71;100.00;78250.28;5023884;28;20462;-73
2023/08/20 03:22:33;;;;;;;15.85;3.05;;;;;;;17.77;100.00;81080.28;5026536;28;20029;-74
2023/08/20 03:24:58;;;;;;;13.07;2.45;;;;;;;17.84;100.00;83914.88;5020541;28;20381;-73
2023/08/20 03:27:24;;;;;;;9.53;2.67;;;;;;;17.79;100.00;86027.81;5029236;28;20028;-73
2023/08/20 03:29:49;;;;;;;16.93;2.90;;;;;;;17.74;100.00;84960.59;5027123;28;20377;-73
2023/08/20 03:32:15;;;;;;;11.13;2.90;;;;;;;17.75;100.00;82137.28;5023757;28;20037;-74
2023/08/20 03:34:40;;;;;;;19.67;2.88;;;;;;;17.67;100.00;81066.72;5021379;28;20075;-73
2023/08/20 03:37:05;;;;;;;11.47;2.60;;;;;;;17.64;100.00;78593.13;5022141;28;20033;-73
2023/08/20 03:39:31;;;;;;;11.43;2.77;;;;;;;17.57;100.00;74002.88;5021885;28;20116;-73
2023/08/20 03:41:57;;;;;;;11.90;2.60;;;;;;;17.52;100.00;72235.38;5027387;28;20028;-73
2023/08/20 03:44:23;;;;;;;13.85;3.45;;;;;;;17.47;100.00;72582.00;5020713;28;20626;-73
2023/08/20 03:46:48;;;;;;;11.15;2.88;;;;;;;17.44;100.00;69410.66;5022534;28;20104;-73
2023/08/20 03:49:14;;;;;;;10.50;2.53;;;;;;;17.36;100.00;68697.94;5026161;28;20108;-73
2023/08/20 03:51:40;;;;;;;11.90;2.70;;;;;;;17.39;100.00;69053.69;5023271;28;20566;-73
2023/08/20 03:54:06;;;;;;;;;;;;;;;17.33;100.00;68342.88;5021745;28;20524;-73
2023/08/20 03:56:31;;;;;;;12.70;2.60;;;;;;;17.22;100.00;67275.78;5021683;28;19924;-73
2023/08/20 03:58:56;;;;;;;10.47;2.80;;;;;;;17.12;100.00;67615.88;5020358;28;20037;-74
2023/08/20 04:01:22;;;;;;;14.73;2.97;;;;;;;17.07;100.00;66908.03;5027788;28;20034;-74
2023/08/20 04:03:48;;;;;;;12.93;3.17;;;;;;;17.07;100.00;62343.41;5017780;28;20531;-73
2023/08/20 04:06:13;;;;;;;13.45;2.35;;;;;;;17.04;100.00;60234.84;5023404;28;20029;-73
2023/08/20 04:08:39;;;;;;;10.23;2.40;;;;;;;17.04;100.00;60585.59;5024844;28;20041;-73
2023/08/20 04:11:04;;;;;;;9.30;2.93;;;;;;;16.98;100.00;61983.09;5022053;28;20436;-73
2023/08/20 04:13:30;;;;;;;13.23;2.70;;;;;;;16.87;100.00;63023.56;5021763;28;20037;-73
2023/08/20 04:15:55;;;;;;;10.70;2.83;;;;;;;16.82;100.00;60913.78;5026442;28;20405;-74
2023/08/20 04:18:21;;;;;;;14.27;2.63;;;;;;;16.79;100.00;56355.03;5025449;28;20394;-73
2023/08/20 04:20:49;;;;;;;9.85;3.38;;;;;;;16.77;100.00;53202.38;5025214;28;20021;-73
2023/08/20 04:23:14;;;;;;;14.90;2.78;;;;;;;16.76;100.00;51801.97;5026183;28;20487;-73
2023/08/20 04:25:41;;;;;;;14.00;2.83;;;;;;;16.74;100.00;48653.19;5021572;28;20032;-71
2023/08/20 04:28:06;;;;;;;12.23;3.20;;;;;;;16.66;100.00;50394.41;5019555;28;20149;-75
2023/08/20 04:30:31;;;;;;;10.77;2.60;;;;;;;16.64;100.00;51791.88;5019978;28;20124;-74
2023/08/20 04:32:57;;;;;;;11.90;2.67;;;;;;;16.57;100.00;54234.00;5014108;28;20026;-75
2023/08/20 04:35:22;;;;;;;16.63;3.43;;;;;;;16.57;100.00;48988.63;5026937;28;20029;-76
2023/08/20 04:37:48;;;;;;;17.07;2.93;;;;;;;16.52;100.00;46888.44;5028942;28;20029;-74
2023/08/20 04:40:13;;;;;;;9.50;2.63;;;;;;;16.54;100.00;45144.16;5022782;28;20092;-75
2023/08/20 04:42:38;;;;;;;13.83;2.87;;;;;;;16.55;100.00;42702.28;5020018;28;20083;-75
2023/08/20 04:45:04;;;;;;;12.90;2.67;;;;;;;16.50;100.00;43745.38;5028746;28;20029;-74
2023/08/20 04:47:30;;;;;;;11.10;2.90;;;;;;;16.47;100.00;44091.72;5026779;28;20028;-75
2023/08/20 04:49:55;;;;;;;10.40;2.23;;;;;;;16.50;100.00;43047.16;5021153;28;20069;-74
2023/08/20 04:52:20;;;;;;;12.03;3.10;;;;;;;16.50;100.00;41651.84;5025899;28;20076;-74
2023/08/20 04:54:47;;;;;;;12.53;2.50;;;;;;;16.47;100.00;40603.94;5017611;28;20037;-74
2023/08/20 04:57:12;;;;;;;16.00;3.22;;;;;;;16.49;100.00;38862.00;5022356;28;20476;-75
2023/08/20 04:59:38;;;;;;;10.30;3.20;;;;;;;16.47;100.00;39209.53;5025560;28;20112;-74
2023/08/20 05:02:03;;;;;;;14.60;2.77;;;;;;;16.44;100.00;37813.34;5022767;28;20481;-75
2023/08/20 05:04:29;;;;;;;13.60;2.63;;;;;;;16.45;100.00;36420.63;5024028;28;20025;-76
2023/08/20 05:06:54;;;;;;;17.70;3.30;;;;;;;16.48;100.00;34681.41;5023857;28;20025;-75
2023/08/20 05:09:21;;;;;;;14.52;2.97;;;;;;;16.49;100.00;35378.38;5020811;28;20040;-75
2023/08/20 05:11:46;;;;;;;14.15;2.85;;;;;;;16.51;100.00;35727.81;5022221;28;20053;-74
2023/08/20 05:14:12;;;;;;;12.53;3.17;;;;;;;16.52;100.00;36773.66;5024836;28;20087;-75
2023/08/20 05:16:37;;;;;;;21.23;4.30;;;;;;;16.49;100.00;36423.44;5025337;28;20116;-74
2023/08/20 05:19:02;;;;;;;17.03;3.77;;;;;;;16.57;100.00;35035.28;5020513;28;20033;-74
2023/08/20 05:21:28;;;;;;;13.30;3.20;;;;;;;16.61;100.00;34340.94;5022792;28;20033;-73
2023/08/20 05:23:53;;;;;;;13.23;3.00;;;;;;;16.73;100.00;32955.28;5018563;28;20034;-74
2023/08/20 05:26:19;;;;;;;17.73;3.33;;;;;;;16.90;100.00;31572.25;5018844;28;20104;-74
2023/08/20 05:28:44;;;;;;;18.77;4.40;;;;;;;16.89;100.00;32964.34;5017315;28;20040;-73
2023/08/20 05:31:10;;;;;;;14.57;3.37;;;;;;;16.94;100.00;33315.75;5016437;28;20139;-75
2023/08/20 05:33:36;;;;;;;18.35;3.80;;;;;;;16.93;100.00;35405.09;5023499;28;20128;-74
2023/08/20 05:36:01;;;;;;;20.10;3.30;;;;;;;16.95;100.00;35754.78;5022586;28;20124;-75
2023/08/20 05:38:26;;;;;;;12.53;3.23;;;;;;;16.92;100.00;36449.97;5023845;28;20032;-74
2023/08/20 05:40:52;;;;;;;14.17;3.07;;;;;;;16.98;100.00;34014.72;5025011;28;20029;-74
2023/08/20 05:43:17;;;;;;;10.43;2.60;;;;;;;17.01;100.00;35061.44;5026305;28;20025;-74
2023/08/20 05:45:43;;;;;;;11.77;3.30;;;;;;;17.04;100.00;35063.56;5024513;28;20030;-74
2023/08/20 05:48:08;;;;;;;14.10;3.13;;;;;;;17.02;100.00;36805.16;5019391;28;20402;-75
2023/08/20 05:50:33;;;;;;;13.83;3.67;;;;;;;17.08;100.00;36459.97;5023961;28;20025;-74
2023/08/20 05:53:00;;;;;;;12.33;2.80;;;;;;;17.16;100.00;35419.38;5019664;28;20053;-75
2023/08/20 05:55:25;;;;;;;;;;;;;;;17.29;100.00;35078.31;5023384;28;20071;-74
2023/08/20 05:57:51;;;;;;;15.23;4.05;;;;;;;17.48;100.00;37880.69;5015986;28;20019;-74
2023/08/20 06:00:17;;;;;;;13.53;3.43;;;;;;;17.58;100.00;42077.97;5023702;28;20025;-74
2023/08/20 06:02:43;;;;;;;;;;;;;;;17.72;100.00;48384.00;5015931;28;20502;-72
2023/08/20 06:05:09;;;;;;;14.35;2.85;;;;;;;17.81;100.00;53646.97;5028322;28;20014;-71
2023/08/20 06:07:34;;;;;;;15.98;3.80;;;;;;;17.87;100.00;58212.50;5020842;28;20076;-71
2023/08/20 06:10:00;;;;;;;18.90;3.10;;;;;;;17.92;100.00;61026.72;5022310;28;20038;-70
2023/08/20 06:12:25;;;;;;;17.17;3.77;;;;;;;18.04;100.00;63147.75;5030890;28;20025;-71
2023/08/20 06:14:50;;;;;;;13.87;2.90;;;;;;;18.16;100.00;67030.72;5028944;28;20032;-72
2023/08/20 06:17:16;;;;;;;19.23;3.27;;;;;;;18.20;100.00;70204.28;5025758;28;20473;-71
2023/08/20 06:19:41;;;;;;;10.80;3.13;;;;;;;18.30;100.00;72682.47;5024576;28;20132;-71
2023/08/20 06:22:07;;;;;;;12.27;3.13;;;;;;;18.35;100.00;75157.91;5031055;28;20079;-71
2023/08/20 06:24:32;;;;;;;17.10;3.20;;;;;;;18.46;100.00;79761.44;5031532;28;20032;-72
2023/08/20 06:26:58;;;;;;;18.07;3.40;;;;;;;18.51;100.00;80474.06;5027011;28;20030;-71
2023/08/20 06:29:23;;;;;;;16.43;2.80;;;;;;;18.61;100.00;84377.50;5022839;28;20029;-72
2023/08/20 06:31:50;;;;;;;12.53;3.70;;;;;;;18.69;100.00;88281.66;5028098;28;20033;-71
2023/08/20 06:34:15;;;;;;;;;;;;;;;18.72;100.00;90412.28;5029440;28;20476;-73
2023/08/20 06:36:40;;;;;;;13.40;4.28;;;;;;;18.77;100.00;98223.44;5027409;28;19917;-73
2023/08/20 06:39:06;;;;;;;15.90;3.53;;;;;;;18.95;100.00;99317.75;5028642;28;20033;-73
2023/08/20 06:41:31;;;;;;;12.10;3.10;;;;;;;19.00;100.00;105726.09;5026131;28;20554;-73
2023/08/20 06:43:56;;;;;;;12.67;2.70;;;;;;;18.98;100.00;103232.53;5028668;28;20503;-73
2023/08/20 06:46:22;;;;;;;22.50;4.50;;;;;;;19.28;100.00;106843.69;5025249;28;20084;-73
2023/08/20 06:48:47;;;;;;;17.13;3.23;;;;;;;20.40;100.00;153004.44;5027676;28;20421;-70
2023/08/20 06:51:19;;;;;;;16.87;3.57;;;;;;;21.66;100.00;156900.34;5022613;28;20108;-72
2023/08/20 06:53:45;;;;;;;9.38;3.00;;;;;;;22.33;100.00;157075.38;5026037;28;20112;-70
2023/08/20 06:56:13;;;;;;;12.50;2.60;;;;;;;23.04;100.00;157261.00;5025942;28;20021;-71
2023/08/20 06:58:40;;;;;;;10.80;2.50;;;;;;;23.47;100.00;157373.47;5024049;28;20036;-70
2023/08/20 07:01:09;;;;;;;14.75;3.03;;;;;;;23.82;100.00;157466.31;5022177;28;20033;-69
2023/08/20 07:03:35;;;;;;;12.30;2.60;;;;;;;24.22;100.00;157570.97;5027263;28;20037;-69
2023/08/20 07:06:01;;;;;;;;;;;;;;;24.13;100.00;157547.47;5025112;28;20100;-71
2023/08/20 07:08:26;;;;;;;12.80;2.58;;;;;;;24.46;100.00;157633.78;5053754;28;19925;-71
2023/08/20 07:10:51;;;;;;;12.67;3.00;;;;;;;24.32;100.00;157597.16;5026154;28;20044;-69
2023/08/20 07:13:17;;;;;;;10.77;2.30;;;;;;;24.26;100.00;157580.13;5025809;28;20108;-73
2023/08/20 07:15:42;;;;;;;11.10;2.40;;;;;;;24.49;100.00;157640.34;5023600;28;20033;-72
2023/08/20 07:18:08;;;;;;;7.80;2.30;;;;;;;24.47;100.00;157636.41;5027203;28;20022;-71
2023/08/20 07:20:33;;;;;;;14.47;2.37;;;;;;;24.73;100.00;157703.16;5025938;28;20021;-74
2023/08/20 07:22:58;;;;;;;11.77;2.93;;;;;;;24.53;100.00;157652.09;5017162;28;20397;-74
2023/08/20 07:25:24;;;;;;;8.47;2.67;;;;;;;24.65;100.00;157682.25;5026588;28;20072;-73
2023/08/20 07:27:50;;;;;;;9.07;2.50;;;;;;;24.59;100.00;157666.56;5025053;28;20025;-73
2023/08/20 07:30:16;;;;;;;9.98;2.72;;;;;;;24.58;100.00;157663.91;5026148;28;20481;-74
2023/08/20 07:32:41;;;;;;;12.73;2.80;;;;;;;24.61;100.00;157671.78;5025773;28;20026;-73
2023/08/20 07:35:08;;;;;;;8.43;2.40;;;;;;;24.47;100.00;157636.41;5023614;28;20358;-76
2023/08/20 07:37:33;;;;;;;11.65;2.97;;;;;;;24.32;100.00;157597.16;5020881;28;20499;-75
2023/08/20 07:39:59;;;;;;;16.20;3.10;;;;;;;24.30;100.00;157591.94;5021736;28;20037;-76
2023/08/20 07:42:24;;;;;;;14.27;2.60;;;;;;;24.52;100.00;157648.16;5022566;28;20397;-75
2023/08/20 07:44:49;;;;;;;11.47;2.77;;;;;;;24.29;100.00;157588.00;5025965;28;20037;-75
2023/08/20 07:47:15;;;;;;;11.03;2.60;;;;;;;24.28;100.00;157585.38;5030973;28;20048;-74
2023/08/20 07:49:40;;;;;;;13.83;2.80;;;;;;;23.90;100.00;157487.25;5026940;28;20033;-75
2023/08/20 07:52:05;;;;;;;9.43;2.43;;;;;;;23.75;100.00;157446.69;5025573;28;20029;-76
2023/08/20 07:54:31;;;;;;;55.60;4.97;;;;;;;23.51;100.00;157383.91;5023284;28;20085;-75
2023/08/20 07:56:57;;;;;;;12.60;2.87;;;;;;;23.46;100.00;157372.16;5023822;28;20393;-70
2023/08/20 07:59:22;;;;;;;16.95;3.92;;;;;;;23.39;100.00;157352.53;5023356;28;20625;-69
2023/08/20 08:01:48;;;;;;;18.10;2.60;;;;;;;23.31;100.00;157331.66;5026235;28;20049;-70
2023/08/20 08:04:15;;;;;;;12.00;2.72;;;;;;;23.35;100.00;157342.06;5029070;28;20021;-69
2023/08/20 08:06:40;;;;;;;11.23;2.58;;;;;;;23.16;100.00;157293.66;5023487;28;20486;-70
2023/08/20 08:09:20;;;;;;;9.87;2.17;;;;;;;23.22;100.00;157308.09;5025617;28;20052;-71
2023/08/20 08:11:45;;;;;;;17.45;3.13;;;;;;;23.17;100.00;157296.34;5025262;28;20033;-71
2023/08/20 08:14:11;;;;;;;10.73;2.17;;;;;;;23.25;100.00;157317.25;5020423;28;20018;-69
2023/08/20 08:16:37;;;;;;;11.57;2.55;;;;;;;23.15;100.00;157289.75;5021622;28;20022;-70
2023/08/20 08:19:02;;;;;;;14.87;3.27;;;;;;;23.26;100.00;157319.84;5015201;28;20044;-70
2023/08/20 08:21:28;;;;;;;14.23;2.93;;;;;;;23.07;100.00;157268.81;5026236;28;20338;-69
2023/08/20 08:23:53;;;;;;;15.63;3.10;;;;;;;23.08;100.00;157272.75;5024512;28;20290;-70
2023/08/20 08:26:18;;;;;;;11.63;2.63;;;;;;;23.15;100.00;157291.03;5024454;28;20063;-69
2023/08/20 08:28:44;;;;;;;14.33;2.50;;;;;;;23.13;100.00;157284.50;5030210;28;20037;-70
2023/08/20 08:31:09;;;;;;;8.77;2.47;;;;;;;23.25;100.00;157315.91;5022065;28;20034;-69
2023/08/20 08:33:35;;;;;;;8.73;2.57;;;;;;;23.20;100.00;157304.16;5022108;28;20037;-69
2023/08/20 08:36:00;;;;;;;9.30;2.40;;;;;;;23.32;100.00;157334.25;5023356;28;20032;-69
2023/08/20 08:38:25;;;;;;;9.27;2.27;;;;;;;23.30;100.00;157329.00;5026115;28;20064;-69
2023/08/20 08:40:51;;;;;;;12.03;2.50;;;;;;;23.38;100.00;157349.94;5025641;28;20042;-70
2023/08/20 08:43:18;;;;;;;10.68;3.30;;;;;;;23.57;100.00;157399.59;5023883;28;20025;-71
2023/08/20 08:45:49;;;;;;;;;;;;;;;23.60;100.00;157407.44;5027708;28;20044;-70
2023/08/20 08:48:15;;;;;;;7.30;2.25;;;;;;;23.52;100.00;157386.56;5021967;28;19917;-72
2023/08/20 08:50:41;;;;;;;6.97;2.50;;;;;;;23.64;100.00;157419.19;5025473;28;20056;-72
2023/08/20 08:53:07;;;;;;;13.07;2.07;;;;;;;23.70;100.00;157433.63;5022699;28;20497;-72
2023/08/20 08:55:33;;;;;;;11.07;2.75;;;;;;;23.78;100.00;157454.50;5024391;28;20112;-72
2023/08/20 08:57:58;;;;;;;8.40;1.93;;;;;;;23.93;100.00;157493.81;5022622;28;20500;-71
2023/08/20 09:00:24;;;;;;;9.53;1.93;;;;;;;23.95;100.00;157499.06;5025671;28;20029;-69
2023/08/20 09:02:49;;;;;;;7.93;1.90;;;;;;;24.11;100.00;157540.91;5025958;28;20219;-69
2023/08/20 09:05:15;;;;;;;8.27;2.07;;;;;;;24.11;100.00;157542.19;5025454;28;20488;-69
2023/08/20 09:07:44;;;;;;;11.13;1.95;;;;;;;24.31;100.00;157593.22;5020685;28;20149;-70
2023/08/20 09:10:10;;;;;;;5.88;1.95;;;;;;;24.44;100.00;157628.53;5020193;28;21551;-68
2023/08/20 09:12:35;;;;;;;8.10;1.87;;;;;;;24.55;100.00;157656.03;5022481;28;20029;-72
2023/08/20 09:15:01;;;;;;;10.00;2.63;;;;;;;24.64;100.00;157679.66;5024225;28;20484;-72
2023/08/20 09:17:27;;;;;;;9.45;1.85;;;;;;;24.67;100.00;157687.47;5021295;28;20132;-72
2023/08/20 09:19:54;;;;;;;;;;;;;;;24.71;100.00;157697.97;5022084;28;20034;-72
2023/08/20 09:22:19;;;;;;;6.10;1.73;;;;;;;24.84;100.00;157733.28;5021028;28;19913;-72
2023/08/20 09:24:46;;;;;;;10.70;2.40;;;;;;;25.08;100.00;157796.09;5022945;28;20171;-72
2023/08/20 09:27:12;;;;;;;6.20;1.58;;;;;;;25.08;100.00;157796.09;5022030;28;20029;-72
2023/08/20 09:29:45;;;;;;;;;;;;;;;25.32;100.00;157857.66;5036253;28;20099;-72
2023/08/20 09:32:19;;;;;;;6.10;1.50;;;;;;;25.40;100.00;157879.91;5026055;28;19943;-73
2023/08/20 09:34:45;;;;;;;9.70;1.52;;;;;;;25.39;100.00;157876.03;5028417;28;20033;-72
2023/08/20 09:37:12;;;;;;;10.13;2.28;;;;;;;25.50;100.00;157904.84;5021000;28;20069;-72
2023/08/20 09:39:38;;;;;;;10.57;1.90;;;;;;;25.60;100.00;157932.31;5025979;28;20052;-73
2023/08/20 09:42:05;;;;;;;9.43;1.80;;;;;;;25.60;100.00;157931.03;5023324;28;20088;-72
2023/08/20 09:44:45;;;;;;;7.03;1.85;;;;;;;25.80;100.00;157983.38;5027043;28;20103;-72
2023/08/20 09:47:15;;;;;;;4.25;1.83;;;;;;;25.68;100.00;157953.28;5043011;28;20409;-72
2023/08/20 09:49:45;;;;;;;6.93;1.25;;;;;;;25.67;100.00;157949.34;5028333;28;20034;-72
2023/08/20 09:52:12;;;;;;;5.45;1.48;;;;;;;25.74;100.00;157967.66;5025860;28;20492;-72
2023/08/20 09:54:56;;;;;;;5.40;1.60;;;;;;;25.76;100.00;157974.22;5025702;28;20029;-72
2023/08/20 09:57:30;;;;;;;5.95;1.60;;;;;;;25.91;100.00;158013.56;5025029;28;20125;-72
2023/08/20 09:59:57;;;;;;;8.20;1.80;;;;;;;26.05;100.00;158048.91;5026189;28;20033;-71
2023/08/20 10:02:24;;;;;;;6.32;1.33;;;;;;;26.18;100.00;158082.94;5032147;28;20029;-72
2023/08/20 10:04:51;;;;;;;4.65;1.13;;;;;;;26.34;100.00;158126.19;5029224;28;20046;-73
2023/08/20 10:07:17;;;;;;;7.35;1.73;;;;;;;26.43;100.00;158148.47;5025030;28;20033;-73
2023/08/20 10:09:45;;;;;;;6.43;1.40;;;;;;;26.39;100.00;158139.31;5023002;28;20033;-72
2023/08/20 10:12:13;;;;;;;6.10;1.38;;;;;;;26.34;100.00;158126.19;5019755;28;20033;-73
2023/08/20 10:14:38;;;;;;;11.43;1.20;;;;;;;26.70;100.00;158220.59;5028756;28;20052;-73
2023/08/20 10:17:15;;;;;;;4.53;1.30;;;;;;;26.49;100.00;158165.50;5022584;28;20057;-73
2023/08/20 10:19:40;;;;;;;;;;;;;;;26.86;100.00;158261.22;5025110;28;20079;-72
2023/08/20 10:22:07;;;;;;;8.15;1.25;;;;;;;26.65;100.00;158206.16;5023566;28;19917;-72
2023/08/20 10:24:47;;;;;;;4.63;1.25;;;;;;;26.42;100.00;158147.13;5028800;28;20527;-73
2023/08/20 10:27:12;;;;;;;6.45;1.20;;;;;;;26.51;100.00;158169.47;5028808;28;20590;-72
2023/08/20 10:29:41;;;;;;;9.57;2.00;;;;;;;26.41;100.00;158143.25;5025957;28;20025;-73
2023/08/20 10:32:13;;;;;;;6.07;1.80;;;;;;;26.69;100.00;158216.66;5023628;28;20057;-70
2023/08/20 10:34:43;;;;;;;3.92;1.40;;;;;;;26.92;100.00;158278.25;5029305;28;20035;-69
2023/08/20 10:37:27;;;;;;;5.90;2.10;;;;;;;26.98;100.00;158292.66;5024837;28;20079;-68
2023/08/20 10:39:56;;;;;;;7.45;1.30;;;;;;;26.68;100.00;158215.31;5024435;28;20048;-68
2023/08/20 10:42:23;;;;;;;8.15;1.63;;;;;;;27.01;100.00;158300.53;5029354;28;20030;-68
2023/08/20 10:45:08;;;;;;;4.40;1.40;;;;;;;27.25;100.00;158363.47;5027146;28;20477;-68
2023/08/20 10:47:44;;;;;;;4.72;1.88;;;;;;;27.20;100.00;158351.69;5028439;28;20044;-68
2023/08/20 10:50:12;;;;;;;6.93;1.83;;;;;;;27.25;100.00;158363.47;5025429;28;20071;-68
2023/08/20 10:52:54;;;;;;;8.13;2.72;;;;;;;27.29;100.00;158373.97;5026418;28;20552;-69
2023/08/20 10:55:23;;;;;;;6.47;1.63;;;;;;;27.20;100.00;158350.41;5026157;28;20033;-68
2023/08/20 10:57:59;;;;;;;5.70;1.60;;;;;;;27.51;100.00;158431.66;5029456;28;20140;-68
2023/08/20 11:00:25;;;;;;;6.95;1.20;;;;;;;27.66;100.00;158472.31;5025378;28;20025;-68
2023/08/20 11:02:52;;;;;;;6.70;1.77;;;;;;;27.63;100.00;158464.44;5025658;28;20040;-70
2023/08/20 11:05:19;;;;;;;4.72;1.33;;;;;;;27.73;100.00;158489.34;5027472;28;20032;-69
2023/08/20 11:07:49;;;;;;;11.32;2.10;;;;;;;28.21;100.00;158615.28;5027627;28;20022;-70
2023/08/20 11:10:17;;;;;;;9.27;1.58;;;;;;;28.40;100.00;158666.56;5029558;28;20499;-69
2023/08/20 11:12:45;;;;;;;11.45;2.58;;;;;;;28.33;100.00;158648.09;5026879;28;21507;-71
2023/08/20 11:15:11;;;;;;;5.78;1.58;;;;;;;28.54;100.00;158701.97;5029757;28;20036;-71